.
WxDataArchive / Data Records for 2013-11-10
2013-11-09 November 2013 2013-11-11

Data Records for Sunday, 10 November 2013

Time	Temp	Chill	HIndex	Humid	Dewpt	 Wind 	HiWind	WindDir	Rain 	Barom 
-----	----	-----	------	-----	-----	------	------	-------	-----	----- 
00:00	48.6	48.6	48.6	62	36.2	3	7	270	0.00	29.988 
00:05	48.5	48.5	48.5	62	36.1	3	7	270	0.00	29.988 
00:10	48.3	48.3	48.3	61	35.5	3	9	270	0.00	29.988 
00:15	48.2	48.2	48.2	61	35.4	3	6	270	0.00	29.987 
00:20	48.2	48.2	48.2	61	35.4	3	7	292	0.00	29.987 
00:25	48.0	48.0	48.0	62	35.6	3	7	270	0.00	29.987 
00:30	47.9	47.9	47.9	62	35.5	2	5	292	0.00	29.987 
00:35	47.7	47.7	47.7	63	35.7	3	5	270	0.00	29.987 
00:40	47.6	47.6	47.6	64	36.0	2	6	270	0.00	29.987 
00:45	47.4	47.4	47.4	64	35.8	2	4	270	0.00	29.988 
00:50	47.1	47.1	47.1	65	35.9	2	4	270	0.00	29.988 
00:55	47.1	47.1	47.1	66	36.3	3	6	270	0.00	29.988 
01:00	47.1	47.1	47.1	66	36.3	2	5	270	0.00	29.987 
01:05	47.0	47.0	47.0	66	36.2	2	5	270	0.00	29.987 
01:10	46.8	46.8	46.8	65	35.7	2	5	270	0.00	29.987 
01:15	46.7	46.7	46.7	66	36.0	2	5	270	0.00	29.987 
01:20	46.7	46.7	46.7	65	35.6	2	7	270	0.00	29.987 
01:25	46.5	46.5	46.5	65	35.4	3	6	270	0.00	29.987 
01:30	46.5	46.5	46.5	64	35.0	2	5	292	0.00	29.990 
01:35	46.4	46.4	46.4	64	34.9	3	5	270	0.00	29.990 
01:40	46.4	46.4	46.4	64	34.9	3	6	270	0.00	29.990 
01:45	46.4	46.4	46.4	63	34.5	2	5	292	0.00	29.995 
01:50	46.2	46.2	46.2	63	34.3	3	5	292	0.00	29.995 
01:55	46.2	46.2	46.2	63	34.3	3	7	270	0.00	29.995 
02:00	46.1	46.1	46.1	62	33.8	3	6	270	0.00	29.995 
02:05	46.0	44.2	46.0	62	33.7	4	10	270	0.00	29.995 
02:10	45.8	43.3	45.8	59	32.3	5	10	270	0.00	29.995 
02:15	45.7	43.9	45.7	56	30.9	4	8	270	0.00	30.002 
02:20	45.5	43.7	45.5	58	31.6	4	7	270	0.00	30.002 
02:25	45.4	43.6	45.4	59	31.9	4	7	270	0.00	30.002 
02:30	45.1	42.5	45.1	58	31.2	5	10	270	0.00	30.004 
02:35	44.9	42.2	44.9	57	30.6	5	10	270	0.00	30.004 
02:40	44.8	42.9	44.8	55	29.6	4	7	270	0.00	30.004 
02:45	44.5	42.5	44.5	53	28.4	4	9	270	0.00	30.005 
02:50	44.2	44.2	44.2	51	27.2	3	7	270	0.00	30.005 
02:55	43.9	41.8	43.9	50	26.5	4	8	270	0.00	30.005 
03:00	43.6	40.7	43.6	49	25.7	5	10	270	0.00	30.006 
03:05	43.5	43.5	43.5	49	25.6	3	9	270	0.00	30.006 
03:10	43.2	43.2	43.2	50	25.8	3	6	270	0.00	30.006 
03:15	42.9	40.7	42.9	50	25.6	4	8	292	0.00	30.015 
03:20	42.9	40.7	42.9	51	26.0	4	8	270	0.00	30.015 
03:25	42.8	40.6	42.8	51	25.9	4	8	270	0.00	30.015 
03:30	42.6	40.3	42.6	51	25.8	4	8	292	0.00	30.020 
03:35	42.3	39.2	42.3	52	25.9	5	9	270	0.00	30.020 
03:40	42.2	42.2	42.2	52	25.9	3	6	270	0.00	30.020 
03:45	41.9	39.5	41.9	52	25.6	4	9	270	0.00	30.027 
03:50	41.8	41.8	41.8	53	25.9	3	6	270	0.00	30.027 
03:55	41.6	39.2	41.6	53	25.8	4	7	270	0.00	30.027 
04:00	41.5	41.5	41.5	54	26.1	3	6	270	0.00	30.041 
04:05	41.3	41.3	41.3	54	25.9	3	6	270	0.00	30.041 
04:10	41.2	41.2	41.2	54	25.8	2	6	270	0.00	30.041 
04:15	41.2	41.2	41.2	54	25.8	3	8	292	0.00	30.047 
04:20	41.3	41.3	41.3	54	25.9	3	6	292	0.00	30.047 
04:25	41.2	41.2	41.2	54	25.8	2	6	270	0.00	30.047 
04:30	41.1	41.1	41.1	54	25.7	2	5	270	0.00	30.051 
04:35	40.9	40.9	40.9	54	25.6	3	5	270	0.00	30.051 
04:40	40.9	40.9	40.9	54	25.6	2	5	270	0.00	30.051 
04:45	40.8	40.8	40.8	54	25.5	3	6	270	0.00	30.057 
04:50	40.8	40.8	40.8	54	25.5	3	6	270	0.00	30.057 
04:55	40.8	40.8	40.8	54	25.5	2	6	270	0.00	30.057 
05:00	40.8	40.8	40.8	53	25.0	3	6	270	0.00	30.060 
05:05	40.8	40.8	40.8	53	25.0	3	5	270	0.00	30.060 
05:10	40.8	40.8	40.8	54	25.5	2	6	292	0.00	30.060 
05:15	40.8	40.8	40.8	53	25.0	3	6	292	0.00	30.066 
05:20	40.8	40.8	40.8	53	25.0	2	4	270	0.00	30.066 
05:25	40.8	40.8	40.8	54	25.5	2	4	248	0.00	30.066 
05:30	40.8	40.8	40.8	54	25.5	1	5	292	0.00	30.073 
05:35	40.8	40.8	40.8	54	25.5	2	5	270	0.00	30.073 
05:40	40.8	40.8	40.8	54	25.5	3	5	270	0.00	30.073 
05:45	40.8	40.8	40.8	54	25.5	2	6	270	0.00	30.088 
05:50	40.8	40.8	40.8	54	25.5	2	6	270	0.00	30.088 
05:55	40.6	40.6	40.6	55	25.7	2	6	248	0.00	30.088 
06:00	40.6	40.6	40.6	55	25.7	2	4	292	0.00	30.087 
06:05	40.6	40.6	40.6	55	25.7	1	3	292	0.00	30.087 
06:10	40.5	40.5	40.5	55	25.6	2	4	292	0.00	30.087 
06:15	40.5	40.5	40.5	55	25.6	2	4	292	0.00	30.100 
06:20	40.5	40.5	40.5	56	26.1	1	3	292	0.00	30.100 
06:25	40.3	40.3	40.3	56	25.9	2	4	292	0.00	30.100 
06:30	40.3	40.3	40.3	56	25.9	1	4	248	0.00	30.108 
06:35	40.3	40.3	40.3	56	25.9	2	6	270	0.00	30.108 
06:40	40.3	40.3	40.3	57	26.3	2	4	270	0.00	30.108 
06:45	40.2	40.2	40.2	57	26.2	3	7	270	0.00	30.115 
06:50	40.2	40.2	40.2	58	26.6	2	5	270	0.00	30.115 
06:55	40.1	40.1	40.1	58	26.5	1	3	270	0.00	30.115 
07:00	40.1	40.1	40.1	58	26.5	1	4	270	0.00	30.125 
07:05	39.9	39.9	39.9	58	26.3	1	3	270	0.00	30.125 
07:10	39.8	39.8	39.8	59	26.7	2	6	270	0.00	30.125 
07:15	39.8	39.8	39.8	59	26.7	3	5	292	0.00	30.138 
07:20	39.6	39.6	39.6	60	26.9	2	4	292	0.00	30.138 
07:25	39.6	39.6	39.6	61	27.3	3	5	270	0.00	30.138 
07:30	39.5	39.5	39.5	62	27.6	2	5	270	0.00	30.140 
07:35	39.3	39.3	39.3	62	27.4	2	5	270	0.00	30.140 
07:40	39.2	39.2	39.2	62	27.3	3	5	292	0.00	30.140 
07:45	39.1	39.1	39.1	63	27.6	2	4	270	0.00	30.153 
07:50	38.9	38.9	38.9	63	27.4	0	2	270	0.00	30.153 
07:55	38.5	38.5	38.5	64	27.4	1	3	270	0.00	30.153 
08:00	38.3	38.3	38.3	64	27.2	1	2	270	0.00	30.171 
08:05	38.2	38.2	38.2	64	27.1	1	3	270	0.00	30.171 
08:10	38.2	38.2	38.2	64	27.1	1	3	270	0.00	30.171 
08:15	38.2	38.2	38.2	64	27.1	1	3	248	0.00	30.180 
08:20	38.2	38.2	38.2	65	27.5	1	4	248	0.00	30.180 
08:25	38.3	38.3	38.3	64	27.2	1	3	248	0.00	30.180 
08:30	38.5	38.5	38.5	64	27.4	1	3	248	0.00	30.186 
08:35	38.8	38.8	38.8	64	27.7	1	3	248	0.00	30.186 
08:40	38.9	38.9	38.9	65	28.2	1	4	248	0.00	30.186 
08:45	39.1	39.1	39.1	65	28.3	1	4	248	0.00	30.198 
08:50	39.3	39.3	39.3	65	28.5	1	4	248	0.00	30.198 
08:55	39.6	39.6	39.6	64	28.4	1	4	248	0.00	30.198 
09:00	40.1	40.1	40.1	64	28.9	2	4	248	0.00	30.197 
09:05	40.1	40.1	40.1	63	28.5	2	4	248	0.00	30.197 
09:10	39.9	39.9	39.9	63	28.3	2	6	248	0.00	30.197 
09:15	40.2	40.2	40.2	64	29.0	2	5	270	0.00	30.205 
09:20	40.6	40.6	40.6	63	29.0	2	5	270	0.00	30.205 
09:25	41.1	41.1	41.1	62	29.1	3	5	270	0.00	30.205 
09:30	41.3	41.3	41.3	62	29.3	3	6	270	0.00	30.210 
09:35	41.5	41.5	41.5	62	29.5	3	5	270	0.00	30.210 
09:40	41.8	41.8	41.8	62	29.7	1	3	292	0.00	30.210 
09:45	41.9	41.9	41.9	62	29.8	2	5	292	0.00	30.217 
09:50	41.9	41.9	41.9	61	29.4	3	7	270	0.00	30.217 
09:55	41.8	41.8	41.8	62	29.7	2	5	315	0.00	30.217 
10:00	41.5	41.5	41.5	62	29.5	3	6	248	0.00	30.223 
10:05	41.3	41.3	41.3	62	29.3	3	5	270	0.00	30.223 
10:10	41.2	41.2	41.2	62	29.2	2	5	292	0.00	30.223 
10:15	41.2	41.2	41.2	63	29.6	2	6	292	0.00	30.235 
10:20	41.2	41.2	41.2	63	29.6	3	6	315	0.00	30.235 
10:25	41.2	41.2	41.2	62	29.2	3	9	270	0.00	30.235 
10:30	41.2	41.2	41.2	63	29.6	2	5	270	0.00	30.241 
10:35	41.2	41.2	41.2	62	29.2	3	5	270	0.00	30.241 
10:40	41.2	41.2	41.2	63	29.6	1	4	270	0.00	30.241 
10:45	41.3	41.3	41.3	63	29.7	2	5	270	0.00	30.248 
10:50	41.5	41.5	41.5	62	29.5	2	5	248	0.00	30.248 
10:55	41.5	41.5	41.5	62	29.5	2	5	248	0.00	30.248 
11:00	41.5	41.5	41.5	62	29.5	2	5	270	0.00	30.253 
11:05	41.6	41.6	41.6	63	30.0	1	5	270	0.00	30.253 
11:10	41.8	41.8	41.8	62	29.7	3	5	270	0.00	30.253 
11:15	41.9	41.9	41.9	63	30.2	2	5	270	0.00	30.264 
11:20	42.2	42.2	42.2	62	30.1	3	6	270	0.00	30.264 
11:25	42.3	42.3	42.3	61	29.8	3	7	270	0.00	30.264 
11:30	42.6	42.6	42.6	62	30.5	2	5	270	0.00	30.265 
11:35	42.9	42.9	42.9	62	30.8	2	4	270	0.00	30.265 
11:40	43.1	40.9	43.1	61	30.6	4	7	270	0.00	30.265 
11:45	42.9	42.9	42.9	61	30.4	3	6	270	0.00	30.266 
11:50	42.9	42.9	42.9	61	30.4	2	7	270	0.00	30.266 
11:55	43.2	43.2	43.2	61	30.7	3	5	292	0.00	30.266 
12:00	43.3	43.3	43.3	60	30.4	3	6	292	0.00	30.265 
12:05	43.8	43.8	43.8	61	31.2	2	5	292	0.00	30.265 
12:10	43.9	43.9	43.9	60	30.9	3	6	292	0.00	30.265 
12:15	43.9	43.9	43.9	60	30.9	2	5	292	0.00	30.264 
12:20	44.1	44.1	44.1	59	30.7	2	5	270	0.00	30.264 
12:25	44.2	44.2	44.2	59	30.8	2	5	270	0.00	30.264 
12:30	44.2	44.2	44.2	58	30.4	2	6	270	0.00	30.262 
12:35	44.2	44.2	44.2	57	29.9	3	6	270	0.00	30.262 
12:40	44.5	44.5	44.5	58	30.7	1	4	270	0.00	30.262 
12:45	44.8	44.8	44.8	57	30.5	2	5	270	0.00	30.261 
12:50	44.6	44.6	44.6	57	30.3	3	6	270	0.00	30.261 
12:55	44.6	44.6	44.6	57	30.3	3	6	315	0.00	30.261 
13:00	44.6	44.6	44.6	57	30.3	3	5	270	0.00	30.258 
13:05	44.8	44.8	44.8	57	30.5	3	5	292	0.00	30.258 
13:10	44.8	44.8	44.8	57	30.5	3	5	270	0.00	30.258 
13:15	45.1	45.1	45.1	56	30.4	3	7	270	0.00	30.256 
13:20	44.9	44.9	44.9	57	30.6	3	7	292	0.00	30.256 
13:25	45.2	45.2	45.2	58	31.3	3	6	270	0.00	30.256 
13:30	45.7	45.7	45.7	57	31.3	3	7	292	0.00	30.250 
13:35	46.0	46.0	46.0	56	31.2	3	7	315	0.00	30.250 
13:40	46.0	46.0	46.0	55	30.7	2	5	292	0.00	30.250 
13:45	46.0	46.0	46.0	55	30.7	2	7	292	0.00	30.254 
13:50	46.0	46.0	46.0	56	31.2	2	6	338	0.00	30.254 
13:55	46.1	46.1	46.1	55	30.8	3	5	270	0.00	30.254 
14:00	46.0	46.0	46.0	55	30.7	3	7	270	0.00	30.261 
14:05	46.2	46.2	46.2	56	31.4	2	7	292	0.00	30.261 
14:10	46.4	46.4	46.4	54	30.7	3	6	270	0.00	30.261 
14:15	46.1	46.1	46.1	54	30.4	2	5	270	0.00	30.262 
14:20	46.2	46.2	46.2	55	30.9	3	5	292	0.00	30.262 
14:25	46.7	46.7	46.7	54	30.9	3	7	270	0.00	30.262 
14:30	47.1	47.1	47.1	53	30.9	2	5	248	0.00	30.262 
14:35	47.6	47.6	47.6	51	30.4	3	5	292	0.00	30.262 
14:40	47.3	45.8	47.3	50	29.6	4	7	292	0.00	30.262 
14:45	46.8	46.8	46.8	52	30.1	2	5	270	0.00	30.268 
14:50	46.5	46.5	46.5	52	29.8	2	6	315	0.00	30.268 
14:55	47.0	47.0	47.0	54	31.2	2	5	315	0.00	30.268 
15:00	47.0	47.0	47.0	52	30.3	2	5	315	0.00	30.273 
15:05	46.7	46.7	46.7	53	30.5	2	5	270	0.00	30.273 
15:10	46.8	46.8	46.8	51	29.6	3	7	270	0.00	30.273 
15:15	47.0	47.0	47.0	50	29.3	3	5	292	0.00	30.279 
15:20	47.0	47.0	47.0	51	29.8	3	5	315	0.00	30.279 
15:25	47.3	47.3	47.3	50	29.6	2	6	270	0.00	30.279 
15:30	47.1	47.1	47.1	51	29.9	1	5	270	0.00	30.278 
15:35	47.1	47.1	47.1	51	29.9	1	4	270	0.00	30.278 
15:40	47.3	47.3	47.3	51	30.1	2	5	270	0.00	30.278 
15:45	47.3	47.3	47.3	54	31.5	0	1	292	0.00	30.271 
15:50	47.4	47.4	47.4	51	30.2	1	3	292	0.00	30.271 
15:55	47.0	47.0	47.0	50	29.3	2	5	315	0.00	30.271 
16:00	46.8	46.8	46.8	51	29.6	2	5	270	0.00	30.281 
16:05	46.7	46.7	46.7	51	29.5	2	4	270	0.00	30.281 
16:10	46.4	46.4	46.4	52	29.7	1	4	315	0.00	30.281 
16:15	46.2	46.2	46.2	52	29.6	2	5	292	0.00	30.286 
16:20	46.1	46.1	46.1	52	29.5	2	5	270	0.00	30.286 
16:25	46.0	46.0	46.0	53	29.8	1	3	292	0.00	30.286 
16:30	45.8	45.8	45.8	53	29.7	0	3	292	0.00	30.288 
16:35	45.8	45.8	45.8	53	29.7	2	4	292	0.00	30.288 
16:40	45.7	45.7	45.7	53	29.6	1	3	292	0.00	30.288 
16:45	45.7	45.7	45.7	53	29.6	1	3	292	0.00	30.290 
16:50	45.4	45.4	45.4	54	29.7	1	4	292	0.00	30.290 
16:55	45.2	45.2	45.2	54	29.6	1	4	270	0.00	30.290 
17:00	45.1	45.1	45.1	54	29.5	1	4	270	0.00	30.297 
17:05	44.9	44.9	44.9	54	29.3	1	3	292	0.00	30.297 
17:10	44.6	44.6	44.6	54	29.0	1	3	292	0.00	30.297 
17:15	44.3	44.3	44.3	55	29.2	0	3	292	0.00	30.301 
17:20	44.2	44.2	44.2	55	29.1	1	3	292	0.00	30.301 
17:25	43.9	43.9	43.9	56	29.2	1	2	292	0.00	30.301 
17:30	43.6	43.6	43.6	57	29.4	0	2	292	0.00	30.303 
17:35	43.3	43.3	43.3	57	29.1	0	2	292	0.00	30.303 
17:40	43.2	43.2	43.2	58	29.4	0	2	292	0.00	30.303 
17:45	42.9	42.9	42.9	58	29.2	0	2	292	0.00	30.304 
17:50	42.8	42.8	42.8	58	29.1	0	1	292	0.00	30.304 
17:55	42.5	42.5	42.5	59	29.2	0	1	292	0.00	30.304 
18:00	42.2	42.2	42.2	60	29.3	0	0	---	0.00	30.307 
18:05	41.9	41.9	41.9	61	29.4	0	0	---	0.00	30.307 
18:10	41.5	41.5	41.5	61	29.1	0	0	---	0.00	30.307 
18:15	41.2	41.2	41.2	62	29.2	0	0	---	0.00	30.320 
18:20	41.1	41.1	41.1	62	29.1	0	0	---	0.00	30.320 
18:25	40.8	40.8	40.8	63	29.2	0	0	---	0.00	30.320 
18:30	40.6	40.6	40.6	64	29.4	0	0	---	0.00	30.322 
18:35	40.3	40.3	40.3	65	29.5	0	0	---	0.00	30.322 
18:40	40.1	40.1	40.1	65	29.3	0	0	---	0.00	30.322 
18:45	39.9	39.9	39.9	66	29.5	0	0	---	0.00	30.320 
18:50	39.8	39.8	39.8	67	29.8	0	1	292	0.00	30.320 
18:55	39.6	39.6	39.6	67	29.6	0	0	---	0.00	30.320 
19:00	39.5	39.5	39.5	67	29.5	0	0	---	0.00	30.322 
19:05	39.3	39.3	39.3	68	29.6	0	0	---	0.00	30.322 
19:10	39.2	39.2	39.2	68	29.5	0	0	---	0.00	30.322 
19:15	39.1	39.1	39.1	68	29.4	0	0	---	0.00	30.324 
19:20	38.9	38.9	38.9	69	29.6	0	0	---	0.00	30.324 
19:25	38.8	38.8	38.8	70	29.9	0	1	292	0.00	30.324 
19:30	38.6	38.6	38.6	70	29.7	0	0	---	0.00	30.324 
19:35	38.5	38.5	38.5	70	29.6	0	0	---	0.00	30.324 
19:40	38.2	38.2	38.2	70	29.3	0	0	---	0.00	30.324 
19:45	37.9	37.9	37.9	71	29.4	0	0	---	0.00	30.317 
19:50	37.5	37.5	37.5	71	29.0	0	0	---	0.00	30.317 
19:55	37.0	37.0	37.0	72	28.8	0	0	---	0.00	30.317 
20:00	36.8	36.8	36.8	73	29.0	0	0	---	0.00	30.315 
20:05	36.5	36.5	36.5	73	28.7	0	0	---	0.00	30.315 
20:10	36.0	36.0	36.0	74	28.5	0	0	---	0.00	30.315 
20:15	35.8	35.8	35.8	75	28.7	0	0	---	0.00	30.314 
20:20	35.5	35.5	35.5	75	28.4	0	0	---	0.00	30.314 
20:25	35.2	35.2	35.2	75	28.1	0	0	---	0.00	30.314 
20:30	34.9	34.9	34.9	76	28.1	0	0	---	0.00	30.317 
20:35	34.6	34.6	34.6	76	27.8	0	0	---	0.00	30.317 
20:40	34.3	34.3	34.3	77	27.9	0	0	---	0.00	30.317 
20:45	34.0	34.0	34.0	78	27.9	0	0	---	0.00	30.315 
20:50	33.7	33.7	33.7	79	27.9	0	0	---	0.00	30.315 
20:55	33.4	33.4	33.4	79	27.6	0	0	---	0.00	30.315 
21:00	33.2	33.2	33.2	80	27.7	0	0	---	0.00	30.316 
21:05	33.1	33.1	33.1	81	27.9	0	0	---	0.00	30.316 
21:10	32.9	32.9	32.9	81	27.7	0	0	---	0.00	30.316 
21:15	32.8	32.8	32.8	82	27.9	0	0	---	0.00	30.307 
21:20	32.7	32.7	32.7	82	27.8	0	0	---	0.00	30.307 
21:25	32.5	32.5	32.5	82	27.6	0	0	---	0.00	30.307 
21:30	32.4	32.4	32.4	82	27.5	0	0	---	0.00	30.300 
21:35	32.2	32.2	32.2	82	27.3	0	0	---	0.00	30.300 
21:40	32.1	32.1	32.1	83	27.5	0	0	---	0.00	30.300 
21:45	31.9	31.9	31.9	83	27.3	0	0	---	0.00	30.292 
21:50	31.8	31.8	31.8	84	27.5	0	0	---	0.00	30.292 
21:55	31.8	31.8	31.8	84	27.5	0	0	---	0.00	30.292 
22:00	31.6	31.6	31.6	84	27.3	0	0	---	0.00	30.290 
22:05	31.5	31.5	31.5	84	27.2	0	0	---	0.00	30.290 
22:10	31.3	31.3	31.3	84	27.0	0	0	---	0.00	30.290 
22:15	31.3	31.3	31.3	85	27.3	0	0	---	0.00	30.292 
22:20	31.2	31.2	31.2	85	27.2	0	0	---	0.00	30.292 
22:25	31.0	31.0	31.0	85	27.0	0	0	---	0.00	30.292 
22:30	30.9	30.9	30.9	85	26.9	0	0	---	0.00	30.296 
22:35	30.9	30.9	30.9	86	27.2	0	0	---	0.00	30.296 
22:40	30.7	30.7	30.7	86	27.0	0	0	---	0.00	30.296 
22:45	30.6	30.6	30.6	86	26.9	0	0	---	0.00	30.299 
22:50	30.4	30.4	30.4	86	26.7	0	0	---	0.00	30.299 
22:55	30.3	30.3	30.3	86	26.6	0	0	---	0.00	30.299 
23:00	30.1	30.1	30.1	87	26.7	0	0	---	0.00	30.293 
23:05	30.1	30.1	30.1	87	26.7	0	0	---	0.00	30.293 
23:10	30.1	30.1	30.1	87	26.7	0	0	---	0.00	30.293 
23:15	30.0	30.0	30.0	87	26.6	0	0	---	0.00	30.288 
23:20	30.0	30.0	30.0	87	26.6	0	0	---	0.00	30.288 
23:25	29.8	29.8	29.8	87	26.4	0	0	---	0.00	30.288 
23:30	30.0	30.0	30.0	88	26.9	0	0	---	0.00	30.291 
23:35	30.3	30.3	30.3	88	27.2	0	0	---	0.00	30.291 
23:40	30.4	30.4	30.4	88	27.3	0	0	---	0.00	30.291 
23:45	30.9	30.9	30.9	89	28.0	0	0	---	0.00	30.282 
23:50	31.3	31.3	31.3	89	28.4	0	0	---	0.00	30.282 
23:55	31.9	31.9	31.9	89	29.0	0	0	---	0.00	30.282 

CoCoRaHS
IN-AL-39
A2 Web Hosting
Creative Commons License
GoDaddy
search engine by freefind advanced

loaded 2018-11-19 10:47:14 • last modified 2010-11-18 10:43:29
Privacy PolicyDisclaimer
• wx.awcolley.com is powered by PmWiki v.2002016 •
• all content (unless otherwise noted) © 2018 A W Colley